Portada
METAR-TAF:

METAR-TAF

Aeropuertos :

Colmenar Viejo, España

latitud: 40-39N, longitud: 003-44W, altitud: -999 m

Observación

El informe se hizo hace 25 minutos, a las 18:00 UTC
Viento 4 kt del suroeste
Temperatura 23°C
Humedad 31%
Presión 1021 hPa
Visibilidad 10 km o más
Escasas nubes a una altura de 6000 ft

METAR: LECV 231800Z 22004KT 9999 FEW060 23/05 Q1021

Hora: 20:25 (18:25 UTC)

Pronóstico

El informe se hizo hace 1 hora y 25 minutos, a las 17:00 UTC
Pronóstico válido del 23 a las 18 UTC al 24 a las 03 UTC
Viento 7 kt del sur-suroeste
Visibilidad 10 km o más
Escasas nubes a una altura de 5000 ft

TAF: LECV 231700Z 2318/2403 21007KT 9999 FEW050

Observaciones y pronósticos meteorológicos de más de 4000 aeropuertos (mensajes METAR y TAF).

Los puntos amarillos y rojos representan las estaciones disponibles.

Ponga el ratón en el punto deseado para ver el nombre de la estación.

Haga clic para ver las observaciones y los pronósticos meteorológicos.

Para cambiar el mapa : haga clic en los botones verdes con una cruz de color negro para hacer un zoom, en el botón verde con un guión para alejar o en las flechas verdes para mapas adyacentes.


METAR-TAF: